首页
METAR-TAF:

METAR-TAF

机场 :

Gogebic-Iron County Airport

Ironwood, 密歇根州, 美国

纬度: 46-32N, 经度: 090-08W, 海拔: 375米

当前天气观测

该预报发布于1小时和1分钟前的19:56 UTC
风速10节,风向西转西南,有时为16节阵风
温度 20°C
湿度 49%
气压 1013 hPa
能見度: 16.1公里
散云层高于4700英尺

METAR: KIWD 231956Z AUTO 25010G16KT 10SM SCT047 20/09 A2992 RMK AO2 SLP131 T02000094

时间: 16:57 (20:57 UTC)

预报

该预报发布于3小时和37分钟前的17:20 UTC
预报有效从23日的 18点(UTC)到 24日的 18点(UTC)
风速6节,风向西转西北
能見度: 10公里
少量云层高于8000英尺
从 23日的 2100点(UTC)
风速4节,风向多变
能見度: 10公里
少量云层高于15000英尺
从 24日的 1300点(UTC)
风速6节,风向南转西南
能見度: 10公里
少量云层高于15000英尺
从 24日的 1700点(UTC)
风速10节,风向南转西南,有时为18节阵风
能見度: 10公里
少量云层高于15000英尺

TAF: KIWD 231720Z 2318/2418 29006KT P6SM FEW080 FM232100 VRB04KT P6SM FEW150 FM241300 20006KT P6SM FEW150 FM241700 21010G18KT P6SM FEW150

超过4000个机场的气象观测和天气预报(METAR&TAF报告)。

可查询的气象台以黄色和红色小点在地图上表示。

将鼠标移到小点上方,可查看气象台名称。

然后点击查看天气观测和预报。

如需切换地图:点击带黑十字的绿色按钮放大地图;点击带横线的绿色按钮缩小地图;或者点击绿色箭头查看邻近地区的地图。


METAR-TAF: